createdAt,value
2023-05-02T00:02:19.094Z,19.10
2023-05-02T00:04:52.019Z,19.10
2023-05-02T00:07:24.675Z,19.10
2023-05-02T00:09:57.297Z,19.10
2023-05-02T00:12:29.906Z,19.00
2023-05-02T00:15:02.602Z,19.00
2023-05-02T00:17:35.297Z,19.00
2023-05-02T00:20:14.739Z,19.00
2023-05-02T00:22:47.276Z,19.00
2023-05-02T00:25:19.995Z,19.00
2023-05-02T00:27:53.178Z,19.00
2023-05-02T00:30:25.867Z,19.00
2023-05-02T00:32:58.518Z,19.00
2023-05-02T00:35:34.010Z,19.10
2023-05-02T00:38:06.900Z,19.00
2023-05-02T00:40:49.600Z,19.10
2023-05-02T00:43:22.168Z,19.10
2023-05-02T00:45:55.817Z,19.10
2023-05-02T00:48:28.739Z,19.00
2023-05-02T00:51:05.425Z,19.00
2023-05-02T00:53:38.598Z,19.10
2023-05-02T00:56:11.528Z,19.00
2023-05-02T00:58:45.069Z,19.00
2023-05-02T01:01:47.835Z,19.00
2023-05-02T01:04:20.590Z,19.00
2023-05-02T01:07:16.700Z,19.00
2023-05-02T01:09:58.781Z,19.00
2023-05-02T01:12:46.573Z,19.00
2023-05-02T01:15:22.817Z,19.00
2023-05-02T01:17:56.876Z,19.00
2023-05-02T01:20:31.463Z,19.00
2023-05-02T01:23:09.686Z,19.00
2023-05-02T01:26:15.748Z,19.00
2023-05-02T01:29:01.912Z,19.00
2023-05-02T01:31:43.778Z,19.00
2023-05-02T01:34:19.163Z,19.00
2023-05-02T01:36:53.222Z,19.00
2023-05-02T01:39:27.406Z,19.00
2023-05-02T01:42:02.913Z,19.00
2023-05-02T01:44:37.349Z,19.00
2023-05-02T01:47:10.954Z,19.00
2023-05-02T01:49:45.052Z,19.00
2023-05-02T01:52:22.130Z,19.00
2023-05-02T01:54:58.073Z,18.90
2023-05-02T01:57:30.806Z,18.90
2023-05-02T02:00:04.578Z,18.90
2023-05-02T02:02:47.094Z,18.90
2023-05-02T02:05:21.178Z,18.90
2023-05-02T02:07:53.963Z,19.00
2023-05-02T02:10:30.713Z,19.00
2023-05-02T02:13:19.073Z,19.00
2023-05-02T02:15:54.134Z,19.00
2023-05-02T02:18:29.042Z,19.00
2023-05-02T02:21:02.257Z,19.00
2023-05-02T02:23:35.220Z,19.00
2023-05-02T02:26:10.253Z,19.00
2023-05-02T02:28:43.190Z,19.00
2023-05-02T02:31:16.081Z,19.00
2023-05-02T02:33:49.139Z,19.00
2023-05-02T02:36:57.427Z,19.00
2023-05-02T02:39:40.479Z,19.00
2023-05-02T02:42:44.000Z,19.00
2023-05-02T02:45:36.802Z,19.00
2023-05-02T02:48:28.198Z,19.00
2023-05-02T02:51:30.282Z,19.00
2023-05-02T02:54:27.088Z,19.00
2023-05-02T02:57:17.286Z,19.00
2023-05-02T03:00:18.909Z,19.00
2023-05-02T03:02:54.345Z,19.00
2023-05-02T03:05:27.474Z,18.90
2023-05-02T03:08:00.560Z,18.90
2023-05-02T03:10:34.078Z,18.90
2023-05-02T03:13:06.704Z,18.90
2023-05-02T03:15:45.647Z,18.90
2023-05-02T03:18:19.601Z,18.90
2023-05-02T03:20:52.521Z,18.90
2023-05-02T03:23:26.219Z,18.90
2023-05-02T03:26:01.023Z,18.90
2023-05-02T03:28:33.864Z,18.90
2023-05-02T03:31:07.159Z,18.90
2023-05-02T03:33:44.376Z,19.00
2023-05-02T03:36:17.153Z,19.00
2023-05-02T03:38:49.858Z,19.00
2023-05-02T03:41:23.195Z,19.00
2023-05-02T03:44:01.535Z,19.00
2023-05-02T03:46:34.390Z,19.00
2023-05-02T03:49:10.206Z,19.00
2023-05-02T03:51:44.758Z,19.00
2023-05-02T03:54:18.536Z,19.00
2023-05-02T03:56:51.166Z,19.00
2023-05-02T03:59:29.784Z,19.00
2023-05-02T04:02:03.488Z,19.00
2023-05-02T04:04:49.409Z,19.00
2023-05-02T04:07:26.274Z,18.90
2023-05-02T04:10:05.073Z,18.90
2023-05-02T04:12:43.654Z,18.90
2023-05-02T04:15:17.177Z,18.90
2023-05-02T04:17:50.996Z,18.90
2023-05-02T04:20:24.815Z,18.90
2023-05-02T04:22:59.716Z,18.90
2023-05-02T04:25:32.588Z,18.90
2023-05-02T04:28:08.395Z,18.90
2023-05-02T04:30:41.419Z,18.90
2023-05-02T04:33:17.327Z,19.00
2023-05-02T04:35:50.700Z,19.00
2023-05-02T04:38:24.442Z,19.00
2023-05-02T04:40:57.274Z,19.00
2023-05-02T04:43:39.926Z,19.00
2023-05-02T04:46:13.407Z,19.10
2023-05-02T04:48:46.133Z,19.10
2023-05-02T04:51:18.820Z,19.20
2023-05-02T04:53:54.287Z,19.30
2023-05-02T04:56:27.239Z,19.30
2023-05-02T04:59:00.190Z,19.40
2023-05-02T05:01:34.380Z,19.40
2023-05-02T05:04:08.984Z,19.40
2023-05-02T05:06:42.131Z,19.40
2023-05-02T05:09:14.881Z,19.40
2023-05-02T05:11:47.640Z,19.40
2023-05-02T05:14:22.141Z,19.30
2023-05-02T05:16:58.659Z,19.30
2023-05-02T05:19:32.351Z,19.30
2023-05-02T05:22:05.226Z,19.30
2023-05-02T05:24:39.463Z,19.30
2023-05-02T05:27:12.550Z,19.20
2023-05-02T05:29:45.412Z,19.20
2023-05-02T05:32:18.566Z,19.20
2023-05-02T05:34:58.601Z,19.10
2023-05-02T05:37:33.949Z,19.20
2023-05-02T05:40:09.301Z,19.20
2023-05-02T05:42:43.328Z,19.20
2023-05-02T05:45:21.601Z,19.20
2023-05-02T05:47:56.161Z,19.20
2023-05-02T05:50:31.901Z,19.20
2023-05-02T05:53:04.505Z,19.20
2023-05-02T05:55:40.229Z,19.20
2023-05-02T05:58:14.515Z,19.30
2023-05-02T06:00:49.613Z,19.30
2023-05-02T06:03:22.740Z,19.30
2023-05-02T06:05:55.387Z,19.30
2023-05-02T06:08:28.024Z,19.30
2023-05-02T06:11:00.678Z,19.40
2023-05-02T06:13:33.321Z,19.40
2023-05-02T06:16:06.811Z,19.40
2023-05-02T06:18:39.709Z,19.40
2023-05-02T06:21:13.339Z,19.50
2023-05-02T06:23:46.357Z,19.50
2023-05-02T06:26:18.836Z,19.50
2023-05-02T06:28:51.391Z,19.50
2023-05-02T06:31:23.929Z,19.50
2023-05-02T06:33:56.573Z,19.60
2023-05-02T06:36:29.214Z,19.60
2023-05-02T06:39:01.842Z,19.60
2023-05-02T06:41:34.473Z,19.70
2023-05-02T06:44:07.060Z,19.70
2023-05-02T06:46:39.705Z,19.70
2023-05-02T06:49:12.245Z,19.70
2023-05-02T06:51:44.930Z,19.70
2023-05-02T06:54:17.496Z,19.70
2023-05-02T06:56:50.138Z,19.70
2023-05-02T06:59:22.689Z,19.70
2023-05-02T07:01:55.252Z,19.70
2023-05-02T07:04:27.872Z,19.70
2023-05-02T07:07:00.525Z,19.60
2023-05-02T07:09:33.122Z,19.70
2023-05-02T07:12:07.104Z,19.60
2023-05-02T07:14:40.002Z,19.60
2023-05-02T07:17:12.729Z,19.60
2023-05-02T07:19:45.765Z,19.70
2023-05-02T07:22:18.493Z,19.80
2023-05-02T07:25:02.099Z,19.90
2023-05-02T07:27:35.137Z,19.90
2023-05-02T07:30:08.293Z,19.90
2023-05-02T07:32:41.011Z,19.90
2023-05-02T07:35:13.606Z,19.90
2023-05-02T07:37:46.659Z,20.00
2023-05-02T07:40:19.114Z,20.10
2023-05-02T07:42:51.890Z,20.20
2023-05-02T07:45:24.419Z,20.30
2023-05-02T07:47:57.014Z,20.30
2023-05-02T07:50:29.813Z,20.40
2023-05-02T07:53:02.390Z,20.50
2023-05-02T07:55:34.994Z,20.60
2023-05-02T07:58:07.542Z,20.80
2023-05-02T08:00:40.051Z,20.90
2023-05-02T08:03:12.873Z,21.00
2023-05-02T08:05:45.412Z,21.10
2023-05-02T08:08:18.101Z,21.20
2023-05-02T08:10:51.673Z,21.30
2023-05-02T08:13:24.413Z,21.40
2023-05-02T08:15:58.615Z,21.40
2023-05-02T08:18:31.315Z,21.30
2023-05-02T08:21:04.058Z,21.30
2023-05-02T08:23:37.880Z,21.30
2023-05-02T08:26:10.630Z,21.30
2023-05-02T08:28:43.302Z,21.30
2023-05-02T08:31:15.915Z,21.20
2023-05-02T08:33:48.665Z,21.10
2023-05-02T08:36:21.282Z,21.00
2023-05-02T08:38:53.885Z,20.90
2023-05-02T08:41:29.416Z,20.90
2023-05-02T08:44:04.501Z,20.80
2023-05-02T08:46:41.031Z,20.80
2023-05-02T08:49:17.248Z,20.70
2023-05-02T08:51:52.036Z,20.70
2023-05-02T08:54:27.242Z,20.60
2023-05-02T08:57:03.805Z,20.60
2023-05-02T08:59:36.695Z,20.60
2023-05-02T09:02:26.731Z,20.60
2023-05-02T09:05:05.526Z,20.50
2023-05-02T09:07:49.992Z,20.60
2023-05-02T09:10:25.259Z,20.70
2023-05-02T09:12:57.942Z,20.80
2023-05-02T09:15:30.581Z,20.80
2023-05-02T09:18:03.625Z,20.80
2023-05-02T09:20:41.180Z,20.80
2023-05-02T09:23:14.296Z,20.90
2023-05-02T09:25:47.083Z,20.90
2023-05-02T09:28:19.697Z,20.90
2023-05-02T09:31:06.183Z,20.90
2023-05-02T09:33:41.906Z,21.00
2023-05-02T09:36:17.018Z,21.00
2023-05-02T09:38:51.238Z,21.00
2023-05-02T09:41:24.123Z,21.00
2023-05-02T09:44:00.168Z,21.00
2023-05-02T09:46:43.607Z,20.90
2023-05-02T09:49:20.385Z,20.80
2023-05-02T09:52:11.247Z,20.80
2023-05-02T09:54:44.283Z,20.70
2023-05-02T09:57:16.856Z,20.60
2023-05-02T09:59:59.337Z,20.60
2023-05-02T10:02:34.303Z,20.50
2023-05-02T10:05:10.902Z,20.50
2023-05-02T10:07:45.266Z,20.40
2023-05-02T10:10:19.348Z,20.40
2023-05-02T10:12:54.687Z,20.40
2023-05-02T10:15:30.615Z,20.30
2023-05-02T10:18:14.677Z,20.30
2023-05-02T10:21:00.242Z,20.20
2023-05-02T10:23:33.918Z,20.10
2023-05-02T10:26:06.547Z,20.10
2023-05-02T10:28:39.970Z,20.10
2023-05-02T10:31:14.738Z,20.00
2023-05-02T10:33:50.983Z,20.00
2023-05-02T10:36:24.115Z,20.00
2023-05-02T10:38:56.451Z,20.00
2023-05-02T10:41:32.610Z,19.90
2023-05-02T10:44:08.097Z,19.90
2023-05-02T10:46:41.842Z,19.80
2023-05-02T10:49:14.672Z,19.80
2023-05-02T10:51:47.260Z,19.70
2023-05-02T10:54:24.034Z,19.70
2023-05-02T10:57:07.958Z,19.60
2023-05-02T10:59:42.790Z,19.50
2023-05-02T11:02:25.420Z,19.50
2023-05-02T11:05:05.215Z,19.50
2023-05-02T11:07:38.558Z,19.50
2023-05-02T11:10:17.011Z,19.50
2023-05-02T11:12:50.439Z,19.50
2023-05-02T11:15:29.089Z,19.40
2023-05-02T11:18:03.884Z,19.40
2023-05-02T11:20:37.786Z,19.30
2023-05-02T11:23:16.544Z,19.30
2023-05-02T11:25:54.436Z,19.30
2023-05-02T11:28:39.535Z,19.30
2023-05-02T11:31:32.393Z,19.30
2023-05-02T11:34:05.144Z,19.20
2023-05-02T11:36:38.146Z,19.20
2023-05-02T11:39:20.379Z,19.20
2023-05-02T11:41:55.016Z,19.30
2023-05-02T11:44:28.757Z,19.30
2023-05-02T11:47:02.653Z,19.30
2023-05-02T11:49:37.207Z,19.30
2023-05-02T11:52:09.748Z,19.40
2023-05-02T11:54:42.367Z,19.40
2023-05-02T11:57:15.653Z,19.40
2023-05-02T11:59:56.218Z,19.30
2023-05-02T12:02:44.918Z,19.30
2023-05-02T12:05:29.851Z,19.20
2023-05-02T12:08:02.846Z,18.90
2023-05-02T12:10:38.768Z,18.60
2023-05-02T12:13:11.962Z,18.30
2023-05-02T12:15:45.082Z,18.00
2023-05-02T12:18:20.118Z,17.80
2023-05-02T12:20:56.697Z,17.60
2023-05-02T12:23:29.403Z,17.50
2023-05-02T12:26:18.550Z,17.40
2023-05-02T12:28:52.582Z,17.30
2023-05-02T12:31:26.932Z,17.30
2023-05-02T12:34:00.704Z,17.20
2023-05-02T12:36:34.254Z,17.10
2023-05-02T12:39:06.840Z,17.10
2023-05-02T12:41:43.887Z,17.10
2023-05-02T12:44:16.521Z,17.10
2023-05-02T12:47:01.623Z,17.10
2023-05-02T12:49:48.375Z,17.10
2023-05-02T12:52:22.883Z,17.10
2023-05-02T12:55:18.722Z,17.10
2023-05-02T12:58:08.503Z,17.10
2023-05-02T13:00:43.721Z,17.20
2023-05-02T13:03:18.074Z,17.20
2023-05-02T13:05:55.002Z,17.30
2023-05-02T13:08:27.590Z,17.40
2023-05-02T13:11:00.627Z,17.40
2023-05-02T13:13:33.708Z,17.50
2023-05-02T13:16:06.859Z,17.50
2023-05-02T13:18:39.623Z,17.60
2023-05-02T13:21:12.292Z,17.70
2023-05-02T13:23:47.340Z,17.80
2023-05-02T13:26:19.947Z,17.80
2023-05-02T13:28:52.469Z,17.90
2023-05-02T13:31:25.324Z,17.90
2023-05-02T13:33:57.992Z,18.00
2023-05-02T13:36:30.909Z,18.00
2023-05-02T13:39:04.644Z,18.10
2023-05-02T13:41:37.656Z,18.10
2023-05-02T13:44:10.316Z,18.20
2023-05-02T13:46:43.341Z,18.20
2023-05-02T13:49:15.963Z,18.20
2023-05-02T13:51:48.790Z,18.30
2023-05-02T13:54:21.497Z,18.30
2023-05-02T13:56:54.321Z,18.30
2023-05-02T13:59:26.778Z,18.30
2023-05-02T14:01:59.697Z,18.30
2023-05-02T14:04:32.293Z,18.30
2023-05-02T14:07:05.295Z,18.30
2023-05-02T14:09:37.794Z,18.30
2023-05-02T14:12:10.639Z,18.30
2023-05-02T14:14:47.387Z,18.20
2023-05-02T14:17:19.966Z,18.20
2023-05-02T14:19:52.755Z,18.10
2023-05-02T14:22:25.384Z,18.10
2023-05-02T14:24:58.045Z,18.00
2023-05-02T14:27:30.767Z,18.00
2023-05-02T14:30:10.904Z,18.00
2023-05-02T14:32:44.644Z,18.00
2023-05-02T14:35:17.335Z,17.90
2023-05-02T14:37:49.932Z,17.90
2023-05-02T14:40:22.704Z,17.80
2023-05-02T14:42:55.276Z,17.70
2023-05-02T14:45:27.865Z,17.70
2023-05-02T14:48:00.514Z,17.70
2023-05-02T14:50:33.210Z,17.70
2023-05-02T14:53:06.131Z,17.60
2023-05-02T14:55:42.114Z,17.60
2023-05-02T14:58:20.788Z,17.50
2023-05-02T15:00:53.992Z,17.50
2023-05-02T15:03:26.749Z,17.40
2023-05-02T15:05:59.455Z,17.40
2023-05-02T15:08:31.951Z,17.30
2023-05-02T15:11:04.514Z,17.30
2023-05-02T15:13:37.748Z,17.30
2023-05-02T15:16:11.053Z,17.30
2023-05-02T15:18:43.627Z,17.30
2023-05-02T15:21:16.259Z,17.30
2023-05-02T15:23:48.850Z,17.30
2023-05-02T15:26:21.647Z,17.30
2023-05-02T15:28:54.292Z,17.30
2023-05-02T15:31:27.149Z,17.30
2023-05-02T15:34:00.103Z,17.30
2023-05-02T15:36:33.044Z,17.30
2023-05-02T15:39:05.957Z,17.30
2023-05-02T15:41:38.541Z,17.30
2023-05-02T15:44:11.221Z,17.40
2023-05-02T15:46:47.146Z,17.40
2023-05-02T15:49:19.859Z,17.40
2023-05-02T15:51:52.368Z,17.40
2023-05-02T15:54:24.965Z,17.50
2023-05-02T15:56:57.472Z,17.50
2023-05-02T15:59:29.968Z,17.50
2023-05-02T16:02:02.764Z,17.50
2023-05-02T16:04:35.536Z,17.50
2023-05-02T16:07:08.169Z,17.50
2023-05-02T16:09:42.028Z,17.50
2023-05-02T16:12:14.910Z,17.50
2023-05-02T16:14:47.441Z,17.50
2023-05-02T16:17:21.228Z,17.50
2023-05-02T16:19:53.764Z,17.50
2023-05-02T16:22:28.000Z,17.50
2023-05-02T16:25:00.901Z,17.50
2023-05-02T16:27:33.882Z,17.40
2023-05-02T16:30:07.102Z,17.40
2023-05-02T16:32:40.834Z,17.40
2023-05-02T16:35:13.736Z,17.40
2023-05-02T16:37:46.691Z,17.40
2023-05-02T16:40:22.266Z,17.50
2023-05-02T16:42:54.856Z,17.50
2023-05-02T16:45:27.428Z,17.50
2023-05-02T16:48:00.159Z,17.50
2023-05-02T16:50:32.808Z,17.60
2023-05-02T16:53:06.837Z,17.60
2023-05-02T16:55:39.358Z,17.60
2023-05-02T16:58:12.184Z,17.60
2023-05-02T17:00:44.677Z,17.60
2023-05-02T17:03:17.487Z,17.60
2023-05-02T17:05:50.165Z,17.60
2023-05-02T17:08:22.730Z,17.60
2023-05-02T17:10:56.450Z,17.70
2023-05-02T17:13:29.137Z,17.60
2023-05-02T17:16:01.693Z,17.70
2023-05-02T17:18:36.040Z,17.70
2023-05-02T17:21:08.810Z,17.80
2023-05-02T17:23:41.694Z,17.80
2023-05-02T17:26:15.253Z,17.80
2023-05-02T17:28:50.476Z,17.80
2023-05-02T17:31:24.164Z,17.80
2023-05-02T17:33:56.903Z,17.80
2023-05-02T17:36:31.448Z,17.80
2023-05-02T17:39:04.430Z,17.80
2023-05-02T17:41:38.026Z,17.90
2023-05-02T17:44:10.785Z,17.90
2023-05-02T17:46:43.703Z,17.90
2023-05-02T17:49:16.943Z,17.90
2023-05-02T17:51:49.828Z,17.90
2023-05-02T17:54:22.410Z,17.90
2023-05-02T17:56:55.835Z,17.90
2023-05-02T17:59:29.014Z,17.90
2023-05-02T18:02:02.048Z,17.90
2023-05-02T18:04:37.644Z,17.90
2023-05-02T18:07:10.831Z,17.90
2023-05-02T18:09:43.672Z,17.90
2023-05-02T18:12:16.514Z,17.90
2023-05-02T18:15:00.432Z,17.90
2023-05-02T18:17:39.823Z,17.90
2023-05-02T18:20:12.834Z,17.90
2023-05-02T18:22:45.549Z,17.90
2023-05-02T18:25:18.848Z,17.80
2023-05-02T18:27:51.660Z,17.80
2023-05-02T18:30:24.428Z,17.80
2023-05-02T18:32:57.062Z,17.70
2023-05-02T18:35:30.501Z,17.80
2023-05-02T18:38:06.129Z,17.70
2023-05-02T18:40:38.710Z,17.70
2023-05-02T18:43:11.353Z,17.60
2023-05-02T18:45:44.590Z,17.60
2023-05-02T18:48:18.733Z,17.60
2023-05-02T18:50:51.934Z,17.60
2023-05-02T18:53:26.626Z,17.50
2023-05-02T18:55:59.264Z,17.50
2023-05-02T18:58:31.928Z,17.50
2023-05-02T19:01:16.127Z,17.50
2023-05-02T19:03:49.288Z,17.50
2023-05-02T19:06:22.103Z,17.50
2023-05-02T19:08:55.297Z,17.50
2023-05-02T19:11:27.643Z,17.50
2023-05-02T19:14:03.496Z,17.50
2023-05-02T19:16:38.335Z,17.50
2023-05-02T19:19:11.023Z,17.50
2023-05-02T19:21:43.634Z,17.50
2023-05-02T19:24:17.060Z,17.40
2023-05-02T19:26:49.755Z,17.50
2023-05-02T19:29:22.222Z,17.50
2023-05-02T19:31:54.896Z,17.50
2023-05-02T19:34:28.380Z,17.50
2023-05-02T19:37:01.135Z,17.50
2023-05-02T19:39:33.999Z,17.50
2023-05-02T19:42:06.914Z,17.60
2023-05-02T19:44:39.556Z,17.60
2023-05-02T19:47:12.025Z,17.60
2023-05-02T19:49:44.754Z,17.60
2023-05-02T19:52:17.298Z,17.60
2023-05-02T19:54:51.579Z,17.60
2023-05-02T19:57:24.081Z,17.60
2023-05-02T19:59:56.684Z,17.60
2023-05-02T20:02:29.338Z,17.60
2023-05-02T20:05:01.999Z,17.60
2023-05-02T20:07:34.705Z,17.60
2023-05-02T20:10:08.125Z,17.60
2023-05-02T20:12:45.068Z,17.60
2023-05-02T20:15:17.769Z,17.60
2023-05-02T20:17:50.565Z,17.60
2023-05-02T20:20:23.672Z,17.60
2023-05-02T20:22:57.359Z,17.60
2023-05-02T20:25:29.914Z,17.50
2023-05-02T20:28:02.454Z,17.60
2023-05-02T20:30:35.101Z,17.60
2023-05-02T20:33:15.392Z,17.60
2023-05-02T20:35:54.738Z,17.60
2023-05-02T20:38:27.272Z,17.60
2023-05-02T20:40:59.942Z,17.60
2023-05-02T20:43:36.529Z,17.60
2023-05-02T20:46:11.304Z,17.60
2023-05-02T20:48:44.069Z,17.60
2023-05-02T20:51:16.982Z,17.60
2023-05-02T20:53:49.823Z,17.60
2023-05-02T20:56:22.942Z,17.60
2023-05-02T20:58:56.310Z,17.60
2023-05-02T21:01:28.931Z,17.60
2023-05-02T21:04:03.738Z,17.60
2023-05-02T21:06:36.416Z,17.60
2023-05-02T21:09:09.865Z,17.60
2023-05-02T21:11:42.461Z,17.60
2023-05-02T21:14:15.919Z,17.60
2023-05-02T21:16:49.656Z,17.60
2023-05-02T21:19:24.498Z,17.50
2023-05-02T21:21:57.503Z,17.50
2023-05-02T21:24:30.058Z,17.50
2023-05-02T21:27:02.776Z,17.50
2023-05-02T21:29:35.882Z,17.50
2023-05-02T21:32:08.616Z,17.50
2023-05-02T21:34:41.376Z,17.50
2023-05-02T21:37:13.952Z,17.40
2023-05-02T21:39:46.509Z,17.40
2023-05-02T21:42:19.161Z,17.40
2023-05-02T21:44:51.812Z,17.40
2023-05-02T21:47:24.537Z,17.40
2023-05-02T21:49:57.652Z,17.40
2023-05-02T21:52:31.916Z,17.40
2023-05-02T21:55:04.760Z,17.30
2023-05-02T21:57:37.492Z,17.30
2023-05-02T22:00:12.008Z,17.30
2023-05-02T22:02:44.706Z,17.40
2023-05-02T22:05:17.482Z,17.30
2023-05-02T22:07:50.362Z,17.30
2023-05-02T22:10:23.122Z,17.30
2023-05-02T22:12:56.791Z,17.30
2023-05-02T22:15:29.949Z,17.30
2023-05-02T22:18:05.067Z,17.30
2023-05-02T22:20:38.321Z,17.30
2023-05-02T22:23:11.257Z,17.20
2023-05-02T22:25:47.807Z,17.20
2023-05-02T22:28:20.551Z,17.20
2023-05-02T22:30:54.234Z,17.20
2023-05-02T22:33:27.473Z,17.20
2023-05-02T22:36:00.141Z,17.20
2023-05-02T22:38:32.860Z,17.20
2023-05-02T22:41:07.150Z,17.20
2023-05-02T22:43:39.801Z,17.20
2023-05-02T22:46:12.414Z,17.20
2023-05-02T22:48:44.981Z,17.20
2023-05-02T22:51:17.686Z,17.20
2023-05-02T22:53:50.347Z,17.20
2023-05-02T22:56:24.634Z,17.20
2023-05-02T22:58:57.177Z,17.20
2023-05-02T23:01:29.788Z,17.20
2023-05-02T23:04:02.418Z,17.20
2023-05-02T23:06:34.930Z,17.20
2023-05-02T23:09:08.558Z,17.20
2023-05-02T23:11:41.013Z,17.20
2023-05-02T23:14:13.575Z,17.20
2023-05-02T23:16:46.057Z,17.20
2023-05-02T23:19:18.604Z,17.10
2023-05-02T23:21:51.161Z,17.10
2023-05-02T23:24:23.735Z,17.20
2023-05-02T23:26:56.433Z,17.10
2023-05-02T23:29:28.960Z,17.10
2023-05-02T23:32:01.811Z,17.10
2023-05-02T23:34:36.679Z,17.10
2023-05-02T23:37:09.793Z,17.10
2023-05-02T23:39:42.419Z,17.10
2023-05-02T23:42:16.333Z,17.10
2023-05-02T23:44:48.802Z,17.10
2023-05-02T23:47:23.129Z,17.00
2023-05-02T23:49:55.734Z,17.00
2023-05-02T23:52:28.590Z,17.10
2023-05-02T23:55:01.171Z,17.10
2023-05-02T23:57:34.030Z,17.10
